Time;durP1;ratioP1;P1;durP2;ratioP2;P2;SDS_P1;SDS_P2;PMS_P1;PMS_P2;Temp;Humidity;BMP_temperature;BMP_pressure;BME280_temperature;BME280_humidity;BME280_pressure;Samples;Min_cycle;Max_cycle;Signal;HPM_P1;HPM_P2
2023/02/24 00:43:37;;;;;;;7.33;5.10;;;;;;;9.86;73.14;95075.84;6022905;23;20179;-92
2023/02/24 01:29:52;;;;;;;5.67;4.50;;;;;;;9.30;75.18;95041.50;5896267;24;20192;-90
2023/02/24 01:53:01;;;;;;;6.57;5.00;;;;;;;9.17;75.38;95021.59;6190413;22;20225;-93
2023/02/24 01:59:34;;;;;;;5.80;5.20;;;;;;;9.12;75.51;95005.16;6150313;23;20243;-92
2023/02/24 02:06:13;;;;;;;6.53;5.13;;;;;;;9.04;76.00;95000.94;6290438;22;20168;-92
2023/02/24 02:19:35;;;;;;;6.17;5.57;;;;;;;9.15;74.92;94989.38;6129815;23;20186;-92
2023/02/24 02:22:46;;;;;;;7.80;5.50;;;;;;;9.18;74.89;94991.59;6331001;22;20737;-94
2023/02/24 02:33:36;;;;;;;;;;;;;;;;;;;;;
2023/02/24 02:51:10;;;;;;;6.67;5.40;;;;;;;8.92;73.80;94990.31;6124130;23;20700;-93
2023/02/24 03:04:50;;;;;;;5.47;4.97;;;;;;;8.78;73.88;94983.44;6038502;23;20304;-92
2023/02/24 03:08:24;;;;;;;6.70;5.30;;;;;;;8.73;73.98;94983.19;6047174;23;20505;-93
2023/02/24 03:17:56;;;;;;;5.60;5.10;;;;;;;8.69;73.73;94978.59;6127317;23;20176;-91
2023/02/24 03:24:26;;;;;;;6.33;4.93;;;;;;;8.70;73.40;94968.13;6058711;23;20175;-92
2023/02/24 03:38:03;;;;;;;7.40;5.53;;;;;;;8.59;72.80;94976.31;6190373;23;20197;-92
2023/02/24 05:35:49;;;;;;;4.70;3.70;;;;;;;8.52;70.76;94849.72;6021237;23;20173;-93
2023/02/24 05:55:23;;;;;;;;;;;;;;;;;;;;;
2023/02/24 06:08:05;;;;;;;4.53;3.47;;;;;;;9.07;100.00;94838.78;6007208;23;20665;-86
2023/02/24 08:37:53;;;;;;;14.07;5.30;;;;;;;10.33;100.00;94781.16;6118057;23;20172;-90
2023/02/24 08:40:38;;;;;;;11.10;5.13;;;;;;;10.97;94.20;94781.41;6117276;23;20205;-85
2023/02/24 08:43:15;;;;;;;11.73;5.80;;;;;;;11.45;86.23;94778.59;6118489;23;20179;-85
2023/02/24 08:50:29;;;;;;;10.13;6.00;;;;;;;11.04;69.69;94764.19;6004693;23;20515;-91
2023/02/24 10:13:44;;;;;;;;;;;;;;;;;;;;;
2023/02/24 10:20:38;;;;;;;12.53;10.10;;;;;;;14.01;62.35;94645.13;5978610;24;20362;-89
2023/02/24 11:22:56;;;;;;;9.53;8.37;;;;;;;13.42;61.71;94575.06;6270826;22;20187;-90
2023/02/24 11:46:29;;;;;;;;;;;;;;;;;;;;;
2023/02/24 12:00:08;;;;;;;14.40;9.90;;;;;;;12.83;66.67;94506.00;6110802;23;20575;-89
2023/02/24 12:05:52;;;;;;;13.90;9.63;;;;;;;12.79;67.89;94499.66;6234745;23;20173;-88
2023/02/24 12:08:46;;;;;;;13.00;10.10;;;;;;;12.86;67.22;94497.81;6240800;23;20176;-89
2023/02/24 12:11:42;;;;;;;15.60;11.63;;;;;;;12.85;67.74;94491.06;6238754;23;20200;-90
2023/02/24 12:14:40;;;;;;;24.87;18.70;;;;;;;12.85;67.80;94492.84;6240185;23;20169;-91
2023/02/24 12:17:22;;;;;;;20.10;14.53;;;;;;;12.81;67.81;94489.91;6228286;23;20173;-89
2023/02/24 12:38:27;;;;;;;13.30;9.07;;;;;;;12.47;67.06;94462.09;6267314;22;20198;-89
2023/02/24 12:41:17;;;;;;;9.50;8.07;;;;;;;12.49;66.70;94453.16;6249232;22;20292;-90
2023/02/24 12:44:56;;;;;;;;;;;;;;;;;;;;;
2023/02/24 13:04:36;;;;;;;17.73;14.43;;;;;;;12.25;70.00;94436.72;6114996;23;20215;-90
2023/02/24 13:11:33;;;;;;;13.87;8.97;;;;;;;12.32;69.98;94428.88;6091122;22;20268;-91
2023/02/24 13:17:46;;;;;;;11.53;8.83;;;;;;;12.46;68.53;94422.59;6247696;22;20182;-90
2023/02/24 13:20:45;;;;;;;11.70;8.67;;;;;;;12.56;68.43;94411.75;6266108;22;20223;-91
2023/02/24 13:32:35;;;;;;;13.07;9.50;;;;;;;12.40;68.65;94397.63;6124304;23;20195;-89
2023/02/24 13:45:28;;;;;;;14.63;9.97;;;;;;;12.22;70.40;94387.31;5986674;23;20231;-88
2023/02/24 13:58:19;;;;;;;;;;;;;;;;;;;;;
2023/02/24 14:11:03;;;;;;;13.67;9.90;;;;;;;12.02;71.91;94379.81;6114965;23;20284;-90
2023/02/24 14:29:10;;;;;;;14.30;10.80;;;;;;;12.05;72.50;94353.56;6219399;22;20930;-90
2023/02/24 14:35:28;;;;;;;15.53;11.30;;;;;;;11.88;73.56;94347.41;6268783;22;20206;-90
2023/02/24 14:38:53;;;;;;;16.53;11.20;;;;;;;11.86;73.21;94352.78;6269059;22;20172;-90
2023/02/24 14:41:51;;;;;;;16.47;12.20;;;;;;;11.88;73.33;94350.78;6248895;22;20193;-90
2023/02/24 14:48:18;;;;;;;20.50;11.07;;;;;;;11.76;76.29;94334.44;6145043;23;20193;-90
2023/02/24 14:54:35;;;;;;;12.83;10.00;;;;;;;11.48;79.64;94334.88;6198481;23;20177;-90
2023/02/24 14:57:32;;;;;;;17.37;10.47;;;;;;;11.47;80.57;94335.09;6239654;23;20579;-90
2023/02/24 15:00:48;;;;;;;15.00;10.67;;;;;;;11.43;81.63;94327.00;6231710;23;20266;-90
2023/02/24 15:11:12;;;;;;;17.07;10.67;;;;;;;11.28;83.62;94309.28;6182625;22;20164;-90
2023/02/24 15:14:23;;;;;;;18.33;9.90;;;;;;;11.28;84.61;94290.47;6112738;23;20381;-91
2023/02/24 15:39:30;;;;;;;13.77;9.10;;;;;;;11.04;88.70;94281.75;6267791;22;20609;-92
2023/02/24 15:42:11;;;;;;;16.03;10.77;;;;;;;11.02;88.12;94291.47;6245841;22;20188;-92
2023/02/24 15:44:54;;;;;;;12.93;8.37;;;;;;;10.94;88.59;94268.59;6239298;23;20173;-91
2023/02/24 15:47:39;;;;;;;;;;;;;;;;;;;;;
2023/02/24 15:50:15;;;;;;;15.80;8.40;;;;;;;11.05;89.04;94260.94;6239298;22;20488;-91
2023/02/24 15:53:01;;;;;;;17.33;9.10;;;;;;;11.10;88.17;94257.75;6232459;23;20176;-92
2023/02/24 16:01:15;;;;;;;17.53;9.83;;;;;;;11.15;88.98;94254.53;6236852;22;20255;-91
2023/02/24 16:06:53;;;;;;;14.77;9.40;;;;;;;11.17;88.71;94242.19;6230573;22;20172;-91
2023/02/24 16:09:48;;;;;;;12.33;8.80;;;;;;;11.12;89.09;94235.13;6238667;23;20620;-92
2023/02/24 16:12:30;;;;;;;15.80;8.83;;;;;;;11.07;89.56;94233.19;6238252;22;20513;-90
2023/02/24 16:15:08;;;;;;;17.10;9.87;;;;;;;11.06;89.21;94238.56;6239180;23;20647;-91
2023/02/24 16:17:44;;;;;;;13.10;9.10;;;;;;;11.06;89.64;94221.31;6238603;23;20211;-89
2023/02/24 16:20:38;;;;;;;16.63;10.17;;;;;;;10.98;90.35;94223.34;6238861;22;20161;-90
2023/02/24 16:23:13;;;;;;;14.60;9.13;;;;;;;10.98;90.43;94216.41;6239770;22;20161;-89
2023/02/24 16:25:45;;;;;;;15.87;9.93;;;;;;;10.85;91.03;94223.47;6238527;23;20247;-90
2023/02/24 16:28:17;;;;;;;14.93;9.53;;;;;;;10.79;91.54;94219.16;6239032;22;20234;-91
2023/02/24 16:31:07;;;;;;;12.40;8.73;;;;;;;10.71;91.96;94225.38;6239586;22;20193;-91
2023/02/24 16:33:54;;;;;;;15.77;9.03;;;;;;;10.75;92.27;94220.63;6238295;23;20900;-90
2023/02/24 16:36:29;;;;;;;13.43;8.70;;;;;;;10.66;92.64;94222.66;6237890;23;20199;-92
2023/02/24 16:41:40;;;;;;;12.53;8.30;;;;;;;10.61;92.90;94246.44;6233511;22;20188;-90
2023/02/24 16:47:27;;;;;;;14.70;7.20;;;;;;;10.38;95.61;94249.59;6236259;23;20207;-90
2023/02/24 16:50:05;;;;;;;21.67;13.40;;;;;;;10.25;96.48;94241.13;6238470;23;20524;-90
2023/02/24 16:52:41;;;;;;;12.27;6.93;;;;;;;10.27;94.74;94241.72;6238312;22;20187;-90
2023/02/24 16:55:31;;;;;;;11.47;4.93;;;;;;;10.15;94.39;94241.56;6238047;23;20165;-90
2023/02/24 16:58:07;;;;;;;11.93;5.30;;;;;;;10.05;96.24;94243.78;6238276;23;20637;-89
2023/02/24 17:01:11;;;;;;;13.83;5.60;;;;;;;9.99;96.94;94242.06;6237070;22;20271;-90
2023/02/24 17:03:47;;;;;;;16.63;5.93;;;;;;;9.94;97.06;94226.44;6237157;22;20168;-89
2023/02/24 17:06:20;;;;;;;12.07;5.80;;;;;;;9.91;96.59;94237.94;6237634;23;20230;-90
2023/02/24 17:08:59;;;;;;;12.23;5.30;;;;;;;9.98;96.12;94228.41;6237602;23;20169;-89
2023/02/24 17:11:50;;;;;;;14.13;6.57;;;;;;;9.84;95.92;94234.59;6237737;22;20228;-91
2023/02/24 17:14:24;;;;;;;14.43;5.70;;;;;;;9.74;97.42;94223.19;6236896;23;20173;-90
2023/02/24 17:17:07;;;;;;;10.83;5.20;;;;;;;9.65;95.31;94222.63;6237684;23;20678;-90
2023/02/24 17:19:52;;;;;;;10.90;5.17;;;;;;;9.58;96.20;94230.38;6237203;22;20679;-90
2023/02/24 17:22:21;;;;;;;12.63;5.30;;;;;;;9.65;97.29;94243.97;6237728;22;20192;-90
2023/02/24 17:24:48;;;;;;;12.77;6.03;;;;;;;9.56;98.38;94227.22;6238294;22;20953;-90
2023/02/24 17:27:22;;;;;;;14.90;6.20;;;;;;;9.58;98.72;94230.38;6236897;23;20248;-90
2023/02/24 17:30:10;;;;;;;12.30;5.03;;;;;;;9.48;99.62;94224.06;6237330;22;20192;-91
2023/02/24 17:32:45;;;;;;;11.17;4.50;;;;;;;9.49;100.00;94218.72;6237837;23;20165;-90
2023/02/24 17:35:19;;;;;;;8.93;4.23;;;;;;;9.43;99.10;94211.06;6237102;22;20259;-90
2023/02/24 17:38:01;;;;;;;9.90;4.00;;;;;;;9.35;100.00;94215.41;6237922;23;20204;-91
2023/02/24 17:40:32;;;;;;;12.20;3.70;;;;;;;9.40;100.00;94217.38;6236552;22;20284;-89
2023/02/24 17:43:05;;;;;;;7.63;3.63;;;;;;;9.43;98.60;94224.66;6237908;23;20177;-90
2023/02/24 17:45:43;;;;;;;10.07;3.80;;;;;;;9.44;98.54;94208.25;6237396;22;20165;-90
2023/02/24 17:48:32;;;;;;;8.00;3.33;;;;;;;9.46;98.67;94201.16;6236245;23;20176;-89
2023/02/24 17:51:01;;;;;;;10.00;3.10;;;;;;;9.40;96.73;94189.13;6236714;22;20193;-90
2023/02/24 17:53:39;;;;;;;9.40;2.93;;;;;;;9.34;97.26;94198.44;6236916;23;20169;-90
2023/02/24 17:56:13;;;;;;;17.70;3.20;;;;;;;9.45;97.50;94189.28;6236964;22;20651;-88
2023/02/24 17:59:03;;;;;;;9.47;2.93;;;;;;;9.45;97.26;94201.34;6237471;22;20582;-90
2023/02/24 18:01:34;;;;;;;7.63;2.93;;;;;;;9.45;98.31;94191.06;6236572;22;20197;-90
2023/02/24 18:04:13;;;;;;;6.50;2.60;;;;;;;9.45;98.04;94189.28;6236668;23;20214;-89
2023/02/24 18:06:53;;;;;;;6.27;2.20;;;;;;;9.46;97.01;94182.38;6237430;23;20648;-91
2023/02/24 18:09:28;;;;;;;7.17;2.70;;;;;;;9.39;97.02;94174.72;6236854;23;20225;-92
2023/02/24 18:11:54;;;;;;;8.97;3.33;;;;;;;9.51;96.36;94169.72;6237298;22;20219;-91
2023/02/24 18:14:29;;;;;;;10.83;3.50;;;;;;;9.56;95.17;94162.19;6236758;23;20172;-91
2023/02/24 18:16:58;;;;;;;11.23;3.87;;;;;;;9.59;95.26;94159.22;6238335;23;20191;-92
2023/02/24 18:19:39;;;;;;;10.87;3.53;;;;;;;9.63;95.22;94152.66;6238433;23;20764;-90
2023/02/24 18:22:17;;;;;;;14.30;4.03;;;;;;;9.68;95.04;94163.91;6239154;22;20505;-91
2023/02/24 18:24:50;;;;;;;10.43;4.00;;;;;;;9.80;94.28;94152.97;6238751;23;20172;-92
2023/02/24 18:27:30;;;;;;;11.67;4.43;;;;;;;9.78;94.18;94152.41;6238935;23;20165;-92
2023/02/24 18:30:01;;;;;;;9.43;3.80;;;;;;;9.76;94.48;94138.97;6238484;22;20547;-91
2023/02/24 18:37:59;;;;;;;10.93;4.20;;;;;;;9.80;94.02;94137.56;6238486;22;20822;-91
2023/02/24 18:40:39;;;;;;;10.20;4.60;;;;;;;9.84;94.15;94131.78;6238845;22;20602;-92
2023/02/24 18:43:09;;;;;;;13.27;5.37;;;;;;;9.78;94.61;94129.25;6239312;22;20628;-91
2023/02/24 18:45:42;;;;;;;13.03;4.90;;;;;;;9.80;94.13;94127.28;6238706;23;20188;-91
2023/02/24 18:48:21;;;;;;;10.17;4.53;;;;;;;9.83;93.27;94126.84;6238212;22;20192;-91
2023/02/24 18:50:58;;;;;;;12.70;5.00;;;;;;;9.72;94.07;94118.03;6237750;22;20193;-92
2023/02/24 18:53:40;;;;;;;;;;;;;;;;;;;;;
2023/02/24 18:56:19;;;;;;;15.20;4.90;;;;;;;9.64;93.81;94108.75;6238583;23;20189;-91
2023/02/24 18:59:07;;;;;;;14.37;4.87;;;;;;;9.72;94.02;94112.09;6238772;23;20191;-91
2023/02/24 19:01:38;;;;;;;11.13;4.60;;;;;;;9.65;93.80;94109.56;6237701;22;20252;-91
2023/02/24 19:04:39;;;;;;;17.50;5.40;;;;;;;9.68;94.77;94112.50;6238667;23;20177;-91
2023/02/24 19:07:18;;;;;;;15.27;5.60;;;;;;;9.73;93.81;94114.47;6233566;23;20191;-91
2023/02/24 19:09:56;;;;;;;17.00;4.70;;;;;;;9.79;93.45;94108.50;6237652;22;20180;-91
2023/02/24 19:12:31;;;;;;;12.80;4.60;;;;;;;9.83;92.94;94111.41;6239079;22;20197;-92
2023/02/24 19:15:04;;;;;;;15.20;5.70;;;;;;;9.78;93.50;94116.41;6238552;23;20638;-92
2023/02/24 19:17:38;;;;;;;11.23;4.93;;;;;;;9.73;93.19;94105.97;6238281;22;20212;-92
2023/02/24 19:20:25;;;;;;;10.90;5.80;;;;;;;9.68;93.33;94109.94;6238477;23;20221;-91
2023/02/24 19:23:00;;;;;;;14.33;5.60;;;;;;;9.66;93.93;94114.50;6238964;23;20180;-91
2023/02/24 19:25:33;;;;;;;14.03;5.50;;;;;;;9.81;93.31;94114.22;6237996;23;20239;-91
2023/02/24 19:28:05;;;;;;;13.33;5.30;;;;;;;9.76;93.44;94126.91;6238058;23;20157;-91
2023/02/24 19:33:33;;;;;;;11.30;4.73;;;;;;;9.88;93.52;94120.09;6236138;23;20652;-92
2023/02/24 19:36:00;;;;;;;16.03;5.50;;;;;;;9.92;93.00;94123.03;6237509;22;20192;-91
2023/02/24 19:38:37;;;;;;;15.00;4.83;;;;;;;9.98;92.78;94145.34;6238095;23;20220;-91
2023/02/24 19:41:14;;;;;;;13.13;5.27;;;;;;;9.85;93.52;94153.13;6239008;22;20189;-91
2023/02/24 19:44:03;;;;;;;;;;;;;;;;;;;;;
2023/02/24 19:46:40;;;;;;;11.70;4.90;;;;;;;9.88;95.13;94137.28;6238125;23;20173;-91
2023/02/24 19:49:19;;;;;;;11.57;4.80;;;;;;;9.77;94.46;94132.81;6238736;23;20173;-91
2023/02/24 19:51:58;;;;;;;18.83;5.90;;;;;;;9.68;95.47;94127.91;6237822;22;20196;-91
2023/02/24 19:54:40;;;;;;;19.93;6.07;;;;;;;9.79;96.29;94141.13;6237755;23;20179;-91
2023/02/24 19:57:17;;;;;;;12.30;5.77;;;;;;;9.83;95.78;94117.34;6238215;23;20282;-92
2023/02/24 19:59:45;;;;;;;11.67;5.03;;;;;;;9.85;94.77;94122.28;6237921;23;20169;-91
2023/02/24 20:02:18;;;;;;;15.77;5.67;;;;;;;9.93;95.83;94127.19;6237828;22;20199;-91
2023/02/24 20:07:42;;;;;;;13.57;5.80;;;;;;;9.89;95.04;94133.72;6205324;22;20234;-91
2023/02/24 20:10:18;;;;;;;11.10;4.77;;;;;;;9.88;94.66;94127.00;6238022;22;20752;-91
2023/02/24 20:12:51;;;;;;;12.30;5.13;;;;;;;9.88;94.27;94122.66;6238770;23;20596;-91
2023/02/24 20:18:22;;;;;;;11.80;5.70;;;;;;;9.98;93.48;94112.72;6235921;22;20223;-90
2023/02/24 20:20:51;;;;;;;13.23;6.00;;;;;;;10.05;93.23;94110.09;6238100;22;20204;-92
2023/02/24 20:23:27;;;;;;;13.33;5.63;;;;;;;10.04;93.27;94109.28;6238074;23;20173;-91
2023/02/24 20:26:12;;;;;;;12.63;6.10;;;;;;;10.05;93.11;94103.16;6238617;22;20192;-91
2023/02/24 20:28:44;;;;;;;15.53;6.73;;;;;;;10.05;92.88;94097.22;6238116;23;20171;-91
2023/02/24 20:31:29;;;;;;;17.13;6.43;;;;;;;10.03;93.58;94099.22;6237610;22;20192;-91
2023/02/24 20:33:56;;;;;;;13.60;6.70;;;;;;;10.07;93.83;94109.88;6238299;22;20175;-92
2023/02/24 20:36:29;;;;;;;13.37;6.97;;;;;;;10.09;96.40;94111.25;6237680;23;20264;-91
2023/02/24 20:39:00;;;;;;;13.73;6.67;;;;;;;10.16;94.70;94101.72;6237951;23;20154;-91
2023/02/24 20:41:39;;;;;;;18.37;7.07;;;;;;;10.21;95.62;94101.88;6236796;22;20204;-91
2023/02/24 20:44:11;;;;;;;16.63;6.70;;;;;;;10.30;95.73;94117.84;6238168;22;20188;-91
2023/02/24 20:46:45;;;;;;;18.43;7.80;;;;;;;10.31;96.34;94122.00;6237408;23;20173;-91
2023/02/24 20:49:24;;;;;;;16.60;8.37;;;;;;;10.25;97.47;94121.03;6237731;23;20173;-91
2023/02/24 20:55:01;;;;;;;13.67;7.87;;;;;;;10.10;97.11;94140.31;6237217;22;20196;-91
2023/02/24 20:57:41;;;;;;;19.27;9.00;;;;;;;10.02;97.06;94133.63;6237439;23;20188;-91
2023/02/24 21:00:14;;;;;;;15.43;8.97;;;;;;;9.93;97.48;94145.97;6236929;23;20243;-91
2023/02/24 21:02:53;;;;;;;10.97;8.47;;;;;;;9.88;98.00;94142.44;6237879;22;20177;-92
2023/02/24 21:05:31;;;;;;;12.37;7.97;;;;;;;9.61;97.71;94124.63;6238068;23;20168;-92
2023/02/24 21:08:02;;;;;;;12.63;8.10;;;;;;;9.56;98.55;94142.44;6238447;22;20169;-91
2023/02/24 21:10:55;;;;;;;12.63;7.70;;;;;;;9.47;99.16;94137.72;6237159;22;20352;-91
2023/02/24 21:13:32;;;;;;;10.80;7.50;;;;;;;9.41;97.75;94136.00;6238226;23;20149;-91
2023/02/24 21:19:05;;;;;;;9.03;6.03;;;;;;;9.05;97.07;94139.06;6217614;22;20811;-92
2023/02/24 21:21:44;;;;;;;10.50;4.83;;;;;;;8.73;94.30;94148.44;6238179;22;20276;-92
2023/02/24 21:24:21;;;;;;;;;;;;;;;;;;;;;
2023/02/24 21:26:56;;;;;;;5.83;3.37;;;;;;;8.52;90.58;94142.53;6239466;23;20196;-91
2023/02/24 21:29:42;;;;;;;5.47;3.23;;;;;;;8.21;90.29;94143.13;6239320;23;20163;-91
2023/02/24 22:12:45;;;;;;;6.70;4.23;;;;;;;7.98;89.02;94147.81;6268291;22;20195;-92
2023/02/24 22:16:01;;;;;;;;;;;;;;;;;;;;;
2023/02/24 22:27:41;;;;;;;5.13;3.80;;;;;;;7.52;87.81;94147.72;6225476;22;20202;-92
2023/02/24 22:30:22;;;;;;;5.93;4.37;;;;;;;7.55;90.08;94137.09;6268282;22;20553;-92
2023/02/24 22:33:30;;;;;;;5.13;3.70;;;;;;;7.33;86.73;94131.31;6268215;22;20860;-91
2023/02/24 22:36:03;;;;;;;4.07;3.60;;;;;;;7.18;87.59;94107.66;6267120;22;20179;-91
2023/02/24 22:38:51;;;;;;;4.50;3.53;;;;;;;7.12;87.59;94111.00;6267011;22;20227;-91
2023/02/24 22:41:22;;;;;;;6.60;3.70;;;;;;;7.05;88.11;94100.72;6266654;22;20241;-91
2023/02/24 22:43:55;;;;;;;4.50;3.17;;;;;;;7.13;87.48;94092.06;6267599;22;20168;-91
2023/02/24 22:46:46;;;;;;;4.77;3.60;;;;;;;7.17;87.16;94099.19;6267078;22;20195;-91
2023/02/24 22:49:23;;;;;;;6.27;3.53;;;;;;;7.31;88.28;94094.91;6267520;22;20179;-91
2023/02/24 22:52:08;;;;;;;4.90;3.93;;;;;;;7.38;88.98;94095.69;6267322;22;20188;-91
2023/02/24 22:54:38;;;;;;;4.50;3.93;;;;;;;7.42;88.25;94091.00;6267721;22;20635;-90
2023/02/24 22:57:11;;;;;;;4.93;3.73;;;;;;;7.37;88.48;94106.13;6267284;22;20238;-92
2023/02/24 22:59:45;;;;;;;4.50;3.70;;;;;;;7.32;89.42;94123.84;6267234;22;20169;-92
2023/02/24 23:02:18;;;;;;;5.10;4.20;;;;;;;7.34;90.15;94140.59;6267828;22;20530;-91
2023/02/24 23:05:09;;;;;;;5.63;4.53;;;;;;;7.28;88.15;94159.28;6269121;22;20164;-91
2023/02/24 23:07:54;;;;;;;7.07;4.87;;;;;;;7.27;89.64;94184.09;6269140;22;20199;-91
2023/02/24 23:10:31;;;;;;;5.90;4.80;;;;;;;7.20;88.01;94197.81;6268247;22;20530;-91
2023/02/24 23:13:14;;;;;;;6.30;4.90;;;;;;;7.35;88.08;94208.72;6269332;22;20172;-91
2023/02/24 23:15:59;;;;;;;5.80;4.83;;;;;;;7.20;86.69;94213.19;6269227;22;20591;-92
2023/02/24 23:18:35;;;;;;;7.10;5.73;;;;;;;7.12;87.37;94216.69;6269305;22;20627;-91
2023/02/24 23:21:14;;;;;;;8.20;5.90;;;;;;;7.10;88.27;94210.19;6268446;22;20580;-91
2023/02/24 23:23:44;;;;;;;8.93;6.00;;;;;;;7.10;88.83;94210.19;6269062;22;20178;-91
2023/02/24 23:26:23;;;;;;;6.57;5.60;;;;;;;7.11;88.45;94216.91;6268961;22;20452;-90
2023/02/24 23:28:53;;;;;;;9.33;6.17;;;;;;;7.09;90.00;94218.84;6269084;22;20156;-91
2023/02/24 23:31:35;;;;;;;7.90;6.20;;;;;;;7.12;90.06;94239.72;6268178;22;20184;-91
2023/02/24 23:34:18;;;;;;;8.93;6.33;;;;;;;7.12;91.15;94244.06;6268865;22;20213;-91
2023/02/24 23:36:58;;;;;;;7.20;5.83;;;;;;;7.15;89.01;94244.44;6268399;22;20173;-91
2023/02/24 23:39:30;;;;;;;7.90;5.80;;;;;;;7.16;87.23;94252.94;6268619;22;20585;-91
2023/02/24 23:42:06;;;;;;;7.60;5.57;;;;;;;7.15;88.46;94259.81;6268787;22;20188;-91
2023/02/24 23:44:49;;;;;;;6.47;5.27;;;;;;;6.99;86.31;94265.22;6268297;22;20186;-91
2023/02/24 23:47:19;;;;;;;6.93;5.13;;;;;;;6.80;86.72;94263.31;6267139;22;20169;-91
2023/02/24 23:49:57;;;;;;;6.37;5.10;;;;;;;6.64;88.18;94261.03;6268149;22;20164;-91
2023/02/24 23:52:37;;;;;;;6.10;4.73;;;;;;;6.56;88.45;94259.38;6268313;22;20192;-91
2023/02/24 23:55:33;;;;;;;6.10;5.17;;;;;;;6.69;89.58;94274.84;6268615;22;20168;-91
